Terminal Aerodrome Forecast
Issued by NWS Charleston, WV

Current Version | Previous Version | Text Only | Print | Product List | Glossary Off
Versions: 1 2 3 4 5 6 7 8 9 10 11 12 13 14 15 16 17 18 19 20 21 22 23 24 25 26 27 28

238
FTUS41 KRLX 040528
TAFBKW
TAF
KBKW 040528Z 0406/0506 00000KT P6SM OVC080
     FM041500 14006KT P6SM OVC050
     FM042000 14007KT P6SM OVC030
     FM042300 14009G15KT P6SM -RA OVC020
     FM050100 15007KT P6SM -SHRA OVC015
     FM050400 16006KT P6SM -SHRA OVC008=

USA.gov is the U.S. government's official web portal to all federal, state and local government web resources and services.